createdAt,value
2022-09-09T00:02:03.806Z,17.70
2022-09-09T00:04:31.557Z,17.60
2022-09-09T00:07:34.870Z,17.50
2022-09-09T00:10:21.009Z,17.40
2022-09-09T00:12:50.586Z,17.40
2022-09-09T00:15:24.532Z,17.30
2022-09-09T00:17:51.069Z,17.50
2022-09-09T00:20:35.689Z,17.60
2022-09-09T00:23:07.636Z,17.70
2022-09-09T00:25:43.210Z,17.60
2022-09-09T00:28:19.060Z,17.70
2022-09-09T00:30:49.154Z,17.70
2022-09-09T00:33:19.642Z,17.70
2022-09-09T00:35:50.582Z,17.80
2022-09-09T00:38:24.371Z,17.80
2022-09-09T00:41:04.140Z,17.80
2022-09-09T00:43:33.928Z,17.80
2022-09-09T00:46:35.986Z,17.80
2022-09-09T00:49:14.899Z,17.80
2022-09-09T00:52:03.685Z,17.70
2022-09-09T00:54:45.611Z,17.70
2022-09-09T00:57:29.299Z,17.50
2022-09-09T01:00:20.482Z,17.40
2022-09-09T01:03:20.311Z,17.20
2022-09-09T01:06:10.227Z,17.30
2022-09-09T01:09:01.811Z,17.30
2022-09-09T01:11:38.545Z,17.20
2022-09-09T01:14:20.659Z,17.20
2022-09-09T01:16:48.143Z,17.20
2022-09-09T01:19:25.308Z,17.20
2022-09-09T01:22:02.432Z,17.30
2022-09-09T01:24:43.286Z,17.30
2022-09-09T01:27:11.381Z,17.30
2022-09-09T01:29:38.614Z,17.30
2022-09-09T01:32:43.091Z,17.30
2022-09-09T01:35:22.554Z,17.30
2022-09-09T01:37:49.149Z,17.30
2022-09-09T01:40:16.278Z,17.30
2022-09-09T01:42:42.949Z,17.30
2022-09-09T01:45:10.212Z,17.20
2022-09-09T01:47:37.129Z,17.10
2022-09-09T01:50:04.376Z,17.00
2022-09-09T01:52:34.885Z,16.90
2022-09-09T01:55:01.531Z,16.90
2022-09-09T01:57:48.529Z,17.00
2022-09-09T02:00:16.286Z,17.10
2022-09-09T02:03:01.401Z,17.10
2022-09-09T02:06:05.823Z,17.00
2022-09-09T02:08:51.819Z,17.00
2022-09-09T02:11:24.252Z,17.00
2022-09-09T02:13:57.593Z,17.00
2022-09-09T02:16:31.929Z,16.90
2022-09-09T02:19:02.210Z,16.90
2022-09-09T02:21:31.314Z,17.00
2022-09-09T02:24:00.597Z,17.10
2022-09-09T02:26:27.975Z,17.10
2022-09-09T02:28:59.036Z,17.10
2022-09-09T02:31:26.733Z,17.20
2022-09-09T02:33:58.168Z,17.10
2022-09-09T02:36:27.600Z,17.00
2022-09-09T02:38:55.385Z,16.90
2022-09-09T02:41:26.943Z,16.90
2022-09-09T02:43:53.568Z,16.70
2022-09-09T02:46:40.029Z,16.70
2022-09-09T02:49:52.539Z,16.50
2022-09-09T02:52:30.994Z,16.60
2022-09-09T02:55:04.806Z,16.70
2022-09-09T02:57:32.704Z,16.70
2022-09-09T02:59:59.998Z,16.80
2022-09-09T03:02:26.874Z,16.60
2022-09-09T03:04:53.584Z,16.50
2022-09-09T03:07:20.425Z,16.50
2022-09-09T03:09:47.111Z,16.60
2022-09-09T03:12:13.772Z,16.60
2022-09-09T03:14:40.601Z,16.70
2022-09-09T03:17:07.782Z,16.60
2022-09-09T03:19:36.160Z,16.50
2022-09-09T03:22:02.824Z,16.60
2022-09-09T03:24:29.437Z,16.60
2022-09-09T03:26:56.747Z,16.60
2022-09-09T03:29:23.341Z,16.60
2022-09-09T03:31:51.555Z,16.60
2022-09-09T03:34:18.173Z,16.60
2022-09-09T03:36:44.846Z,16.60
2022-09-09T03:39:11.564Z,16.60
2022-09-09T03:41:38.225Z,16.60
2022-09-09T03:44:04.845Z,16.60
2022-09-09T03:46:32.198Z,16.60
2022-09-09T03:48:59.147Z,16.60
2022-09-09T03:51:25.810Z,16.60
2022-09-09T03:53:52.395Z,16.60
2022-09-09T03:56:18.964Z,16.60
2022-09-09T03:58:45.604Z,16.60
2022-09-09T04:01:14.453Z,16.50
2022-09-09T04:03:41.956Z,16.40
2022-09-09T04:06:10.540Z,16.40
2022-09-09T04:08:38.446Z,16.30
2022-09-09T04:11:07.371Z,16.30
2022-09-09T04:13:35.396Z,16.40
2022-09-09T04:16:04.612Z,16.40
2022-09-09T04:18:32.020Z,16.30
2022-09-09T04:20:58.934Z,16.30
2022-09-09T04:23:30.263Z,16.40
2022-09-09T04:25:58.522Z,16.50
2022-09-09T04:28:26.831Z,16.40
2022-09-09T04:30:53.457Z,16.40
2022-09-09T04:33:20.765Z,16.30
2022-09-09T04:35:49.436Z,16.40
2022-09-09T04:38:17.493Z,16.40
2022-09-09T04:40:48.218Z,16.40
2022-09-09T04:43:24.626Z,16.50
2022-09-09T04:45:52.751Z,16.50
2022-09-09T04:48:20.161Z,16.50
2022-09-09T04:51:05.780Z,16.50
2022-09-09T04:53:34.904Z,16.50
2022-09-09T04:56:08.574Z,16.40
2022-09-09T04:58:35.253Z,16.40
2022-09-09T05:01:07.152Z,16.50
2022-09-09T05:03:33.856Z,16.40
2022-09-09T05:06:07.953Z,16.50
2022-09-09T05:08:35.260Z,16.50
2022-09-09T05:11:01.877Z,16.40
2022-09-09T05:13:28.826Z,16.50
2022-09-09T05:15:55.717Z,16.50
2022-09-09T05:18:23.210Z,16.50
2022-09-09T05:20:51.841Z,16.50
2022-09-09T05:23:18.434Z,16.50
2022-09-09T05:25:46.645Z,16.50
2022-09-09T05:28:13.248Z,16.50
2022-09-09T05:30:39.968Z,16.50
2022-09-09T05:33:07.575Z,16.40
2022-09-09T05:35:34.400Z,16.20
2022-09-09T05:38:01.461Z,16.10
2022-09-09T05:40:28.072Z,16.00
2022-09-09T05:42:54.639Z,16.10
2022-09-09T05:45:21.472Z,16.10
2022-09-09T05:47:54.366Z,16.20
2022-09-09T05:50:20.948Z,16.40
2022-09-09T05:52:48.932Z,16.40
2022-09-09T05:55:16.409Z,16.50
2022-09-09T05:57:43.384Z,16.60
2022-09-09T06:00:10.614Z,16.60
2022-09-09T06:02:38.983Z,16.60
2022-09-09T06:05:06.127Z,16.70
2022-09-09T06:07:32.718Z,16.70
2022-09-09T06:09:59.945Z,16.70
2022-09-09T06:12:27.055Z,16.80
2022-09-09T06:14:53.602Z,16.80
2022-09-09T06:17:20.357Z,16.90
2022-09-09T06:19:47.237Z,17.00
2022-09-09T06:22:13.887Z,17.00
2022-09-09T06:24:40.510Z,17.10
2022-09-09T06:27:07.086Z,17.10
2022-09-09T06:29:33.692Z,17.20
2022-09-09T06:32:01.189Z,17.30
2022-09-09T06:34:27.815Z,17.40
2022-09-09T06:36:54.423Z,17.40
2022-09-09T06:39:21.688Z,17.40
2022-09-09T06:41:49.408Z,17.40
2022-09-09T06:44:16.388Z,17.50
2022-09-09T06:46:43.498Z,17.50
2022-09-09T06:49:10.635Z,17.50
2022-09-09T06:51:43.648Z,17.50
2022-09-09T06:54:12.129Z,17.60
2022-09-09T06:56:44.449Z,17.60
2022-09-09T06:59:13.053Z,17.60
2022-09-09T07:01:55.571Z,17.70
2022-09-09T07:04:22.779Z,17.80
2022-09-09T07:06:49.563Z,17.80
2022-09-09T07:09:17.545Z,17.80
2022-09-09T07:11:49.871Z,17.80
2022-09-09T07:14:16.703Z,17.90
2022-09-09T07:16:44.463Z,17.90
2022-09-09T07:19:12.364Z,17.90
2022-09-09T07:21:41.132Z,18.00
2022-09-09T07:24:08.372Z,18.00
2022-09-09T07:26:36.219Z,18.10
2022-09-09T07:29:03.398Z,18.10
2022-09-09T07:31:32.792Z,18.10
2022-09-09T07:34:03.477Z,18.20
2022-09-09T07:36:34.413Z,18.30
2022-09-09T07:39:04.461Z,18.40
2022-09-09T07:41:38.466Z,18.50
2022-09-09T07:44:20.030Z,18.60
2022-09-09T07:46:46.914Z,18.70
2022-09-09T07:49:14.252Z,18.80
2022-09-09T07:51:43.847Z,18.80
2022-09-09T07:54:13.460Z,18.90
2022-09-09T07:56:41.177Z,19.00
2022-09-09T07:59:08.889Z,19.10
2022-09-09T08:01:40.146Z,19.20
2022-09-09T08:04:16.023Z,19.30
2022-09-09T08:06:45.360Z,19.20
2022-09-09T08:09:12.022Z,19.30
2022-09-09T08:11:40.489Z,19.30
2022-09-09T08:14:08.725Z,19.30
2022-09-09T08:16:38.069Z,19.30
2022-09-09T08:19:07.366Z,19.40
2022-09-09T08:21:37.541Z,19.40
2022-09-09T08:24:06.079Z,19.40
2022-09-09T08:26:48.149Z,19.40
2022-09-09T08:29:15.618Z,19.40
2022-09-09T08:31:46.572Z,19.30
2022-09-09T08:34:13.517Z,19.20
2022-09-09T08:36:43.478Z,19.30
2022-09-09T08:39:12.225Z,19.40
2022-09-09T08:42:01.476Z,19.40
2022-09-09T08:44:48.895Z,19.40
2022-09-09T08:47:21.650Z,19.40
2022-09-09T08:50:25.542Z,19.40
2022-09-09T08:53:03.680Z,19.50
2022-09-09T08:55:42.767Z,19.60
2022-09-09T08:58:18.491Z,19.60
2022-09-09T09:01:03.534Z,19.70
2022-09-09T09:03:42.447Z,19.80
2022-09-09T09:06:23.715Z,19.80
2022-09-09T09:09:01.997Z,20.00
2022-09-09T09:11:47.422Z,20.10
2022-09-09T09:14:24.693Z,20.10
2022-09-09T09:16:58.678Z,20.20
2022-09-09T09:19:27.138Z,20.20
2022-09-09T09:22:23.553Z,20.30
2022-09-09T09:25:03.825Z,20.30
2022-09-09T09:27:38.526Z,20.40
2022-09-09T09:30:29.024Z,20.30
2022-09-09T09:32:59.364Z,20.30
2022-09-09T09:35:26.099Z,20.30
2022-09-09T09:40:59.052Z,20.40
2022-09-09T09:43:31.440Z,20.40
2022-09-09T09:46:16.693Z,20.40
2022-09-09T09:48:46.163Z,20.40
2022-09-09T09:51:17.123Z,20.40
2022-09-09T09:53:44.243Z,20.50
2022-09-09T09:56:13.993Z,20.50
2022-09-09T09:58:47.012Z,20.60
2022-09-09T10:01:34.246Z,20.70
2022-09-09T10:04:19.518Z,20.80
2022-09-09T10:06:46.557Z,20.80
2022-09-09T10:09:29.386Z,20.90
2022-09-09T10:12:01.963Z,20.90
2022-09-09T10:14:38.090Z,21.00
2022-09-09T10:17:30.224Z,21.10
2022-09-09T10:20:15.551Z,21.20
2022-09-09T10:22:52.459Z,21.30
2022-09-09T10:25:24.809Z,21.30
2022-09-09T10:28:19.274Z,21.40
2022-09-09T10:31:01.335Z,21.50
2022-09-09T10:33:51.320Z,21.60
2022-09-09T10:36:21.967Z,21.80
2022-09-09T10:39:20.934Z,21.90
2022-09-09T10:42:05.080Z,22.00
2022-09-09T10:44:37.885Z,21.90
2022-09-09T10:47:16.590Z,21.90
2022-09-09T10:50:04.744Z,21.80
2022-09-09T10:52:40.203Z,22.00
2022-09-09T10:55:29.862Z,23.20
2022-09-09T10:57:59.506Z,24.60
2022-09-09T11:00:41.543Z,25.40
2022-09-09T11:03:20.425Z,25.60
2022-09-09T11:06:11.075Z,25.60
2022-09-09T11:08:39.964Z,25.00
2022-09-09T11:11:43.547Z,24.50
2022-09-09T11:14:30.543Z,24.00
2022-09-09T11:17:07.543Z,23.50
2022-09-09T11:19:43.631Z,23.20
2022-09-09T11:22:24.599Z,23.00
2022-09-09T11:24:55.686Z,22.80
2022-09-09T11:27:53.307Z,22.60
2022-09-09T11:30:56.237Z,22.50
2022-09-09T11:33:27.016Z,22.40
2022-09-09T11:36:22.623Z,22.20
2022-09-09T11:38:52.755Z,22.20
2022-09-09T11:41:21.965Z,22.10
2022-09-09T11:43:55.034Z,22.00
2022-09-09T11:46:34.549Z,22.00
2022-09-09T11:49:04.277Z,22.00
2022-09-09T11:51:33.030Z,21.90
2022-09-09T11:54:06.008Z,21.90
2022-09-09T11:56:46.737Z,21.90
2022-09-09T11:59:33.684Z,21.90
2022-09-09T12:02:14.300Z,21.80
2022-09-09T12:04:48.609Z,21.70
2022-09-09T12:07:36.011Z,21.70
2022-09-09T12:10:28.288Z,21.60
2022-09-09T12:12:54.994Z,21.50
2022-09-09T12:15:23.410Z,21.40
2022-09-09T12:18:00.151Z,21.30
2022-09-09T12:20:37.722Z,21.30
2022-09-09T12:23:22.937Z,21.20
2022-09-09T12:26:16.773Z,21.20
2022-09-09T12:28:55.855Z,21.10
2022-09-09T12:31:45.707Z,21.00
2022-09-09T12:34:17.498Z,20.90
2022-09-09T12:36:51.854Z,20.90
2022-09-09T12:39:34.853Z,20.80
2022-09-09T12:42:01.546Z,20.70
2022-09-09T12:44:31.098Z,20.50
2022-09-09T12:47:01.773Z,20.50
2022-09-09T12:49:40.133Z,20.50
2022-09-09T12:52:22.153Z,20.50
2022-09-09T12:54:49.521Z,20.50
2022-09-09T12:57:16.485Z,20.50
2022-09-09T12:59:46.192Z,20.50
2022-09-09T13:02:19.412Z,20.50
2022-09-09T13:04:47.764Z,20.60
2022-09-09T13:07:16.925Z,20.60
2022-09-09T13:09:45.446Z,20.70
2022-09-09T13:12:20.483Z,20.70
2022-09-09T13:14:50.286Z,20.70
2022-09-09T13:17:29.849Z,20.70
2022-09-09T13:19:57.371Z,20.80
2022-09-09T13:22:28.386Z,20.80
2022-09-09T13:25:26.530Z,20.90
2022-09-09T13:28:04.863Z,20.90
2022-09-09T13:30:33.417Z,20.90
2022-09-09T13:33:15.433Z,20.90
2022-09-09T13:35:50.244Z,20.90
2022-09-09T13:38:17.678Z,20.90
2022-09-09T13:40:55.890Z,20.90
2022-09-09T13:43:24.187Z,20.90
2022-09-09T13:45:57.187Z,20.90
2022-09-09T13:48:25.067Z,20.90
2022-09-09T13:51:06.143Z,20.90
2022-09-09T13:53:33.169Z,20.80
2022-09-09T13:56:00.643Z,20.80
2022-09-09T13:58:27.432Z,20.80
2022-09-09T14:00:54.422Z,20.80
2022-09-09T14:03:21.958Z,20.70
2022-09-09T14:05:48.717Z,20.70
2022-09-09T14:08:24.748Z,20.70
2022-09-09T14:10:51.752Z,20.70
2022-09-09T14:13:18.441Z,20.60
2022-09-09T14:15:45.117Z,20.60
2022-09-09T14:18:14.096Z,20.60
2022-09-09T14:20:40.916Z,20.50
2022-09-09T14:23:12.009Z,20.40
2022-09-09T14:25:44.144Z,20.40
2022-09-09T14:28:12.710Z,20.40
2022-09-09T14:30:41.681Z,20.40
2022-09-09T14:33:10.542Z,20.30
2022-09-09T14:35:37.156Z,20.30
2022-09-09T14:38:05.612Z,20.40
2022-09-09T14:40:32.561Z,20.40
2022-09-09T14:42:59.368Z,20.40
2022-09-09T14:45:27.182Z,20.40
2022-09-09T14:47:53.868Z,20.40
2022-09-09T14:50:21.172Z,20.40
2022-09-09T14:52:48.161Z,20.30
2022-09-09T14:55:14.934Z,20.20
2022-09-09T14:57:41.978Z,20.10
2022-09-09T15:00:10.773Z,20.00
2022-09-09T15:02:37.445Z,20.10
2022-09-09T15:05:05.166Z,20.00
2022-09-09T15:07:32.829Z,19.90
2022-09-09T15:09:59.454Z,19.90
2022-09-09T15:12:26.041Z,19.80
2022-09-09T15:14:54.517Z,19.80
2022-09-09T15:17:21.445Z,19.90
2022-09-09T15:19:48.189Z,19.90
2022-09-09T15:22:15.115Z,20.00
2022-09-09T15:24:41.714Z,20.10
2022-09-09T15:27:08.315Z,20.20
2022-09-09T15:29:34.953Z,20.30
2022-09-09T15:32:01.589Z,20.30
2022-09-09T15:34:28.213Z,20.10
2022-09-09T15:36:56.409Z,20.10
2022-09-09T15:39:23.559Z,20.10
2022-09-09T15:41:50.161Z,20.30
2022-09-09T15:44:16.950Z,20.30
2022-09-09T15:46:44.809Z,20.30
2022-09-09T15:49:14.193Z,20.30
2022-09-09T15:51:46.238Z,20.30
2022-09-09T15:54:18.801Z,20.20
2022-09-09T15:56:47.495Z,20.20
2022-09-09T15:59:15.623Z,20.20
2022-09-09T16:01:43.038Z,20.20
2022-09-09T16:04:10.457Z,20.30
2022-09-09T16:06:37.513Z,20.30
2022-09-09T16:09:06.564Z,20.30
2022-09-09T16:11:36.469Z,20.30
2022-09-09T16:14:06.227Z,20.30
2022-09-09T16:16:33.253Z,20.30
2022-09-09T16:19:02.928Z,20.30
2022-09-09T16:21:32.215Z,20.20
2022-09-09T16:24:00.911Z,20.20
2022-09-09T16:26:28.568Z,20.20
2022-09-09T16:28:55.319Z,20.20
2022-09-09T16:31:24.259Z,20.10
2022-09-09T16:33:51.761Z,20.10
2022-09-09T16:36:27.777Z,20.20
2022-09-09T16:38:56.006Z,20.10
2022-09-09T16:41:22.969Z,20.10
2022-09-09T16:44:01.329Z,20.20
2022-09-09T16:46:29.734Z,20.20
2022-09-09T16:49:00.653Z,20.20
2022-09-09T16:51:30.367Z,20.20
2022-09-09T16:53:59.844Z,20.20
2022-09-09T16:56:28.639Z,20.10
2022-09-09T16:58:58.079Z,20.10
2022-09-09T17:01:26.452Z,20.10
2022-09-09T17:04:00.840Z,20.00
2022-09-09T17:06:29.841Z,20.00
2022-09-09T17:08:58.118Z,20.00
2022-09-09T17:11:25.337Z,19.90
2022-09-09T17:13:53.682Z,19.90
2022-09-09T17:16:22.682Z,19.80
2022-09-09T17:18:50.805Z,19.80
2022-09-09T17:21:20.478Z,19.70
2022-09-09T17:23:47.685Z,19.50
2022-09-09T17:26:17.358Z,19.40
2022-09-09T17:28:46.468Z,19.40
2022-09-09T17:31:16.143Z,19.30
2022-09-09T17:33:46.897Z,19.10
2022-09-09T17:36:19.970Z,19.10
2022-09-09T17:38:47.792Z,19.00
2022-09-09T17:41:18.648Z,18.90
2022-09-09T17:43:46.051Z,18.90
2022-09-09T17:46:18.112Z,18.70
2022-09-09T17:48:45.732Z,18.60
2022-09-09T17:51:15.031Z,18.60
2022-09-09T17:53:44.655Z,18.50
2022-09-09T17:56:13.464Z,18.40
2022-09-09T17:58:40.393Z,18.30
2022-09-09T18:01:12.708Z,18.30
2022-09-09T18:03:40.551Z,18.40
2022-09-09T18:06:09.608Z,18.30
2022-09-09T18:08:36.999Z,18.40
2022-09-09T18:11:04.570Z,18.30
2022-09-09T18:13:31.374Z,18.20
2022-09-09T18:15:58.464Z,18.30
2022-09-09T18:18:26.172Z,18.30
2022-09-09T18:21:01.702Z,18.30
2022-09-09T18:23:32.425Z,18.30
2022-09-09T18:25:59.540Z,18.20
2022-09-09T18:28:29.314Z,18.20
2022-09-09T18:30:56.036Z,18.20
2022-09-09T18:33:22.675Z,18.20
2022-09-09T18:35:49.295Z,18.20
2022-09-09T18:38:17.518Z,18.20
2022-09-09T18:40:44.540Z,18.20
2022-09-09T18:43:12.737Z,18.10
2022-09-09T18:45:39.470Z,18.10
2022-09-09T18:48:06.072Z,17.90
2022-09-09T18:50:34.193Z,17.80
2022-09-09T18:53:00.791Z,17.80
2022-09-09T18:55:28.721Z,17.80
2022-09-09T18:57:58.598Z,17.80
2022-09-09T19:00:25.639Z,17.80
2022-09-09T19:02:53.054Z,17.80
2022-09-09T19:05:19.754Z,17.80
2022-09-09T19:07:46.337Z,17.70
2022-09-09T19:10:13.276Z,17.60
2022-09-09T19:12:41.322Z,17.50
2022-09-09T19:15:08.377Z,17.40
2022-09-09T19:17:36.572Z,17.40
2022-09-09T19:20:03.922Z,17.40
2022-09-09T19:22:30.842Z,17.30
2022-09-09T19:24:59.074Z,17.30
2022-09-09T19:27:25.751Z,17.30
2022-09-09T19:29:56.801Z,17.20
2022-09-09T19:35:11.099Z,17.10
2022-09-09T19:37:37.670Z,17.10
2022-09-09T19:40:06.681Z,17.00
2022-09-09T19:42:33.391Z,17.00
2022-09-09T19:45:00.097Z,16.90
2022-09-09T19:47:26.845Z,16.90
2022-09-09T19:49:53.642Z,16.80
2022-09-09T19:52:20.281Z,16.70
2022-09-09T19:54:47.023Z,16.70
2022-09-09T19:57:13.720Z,16.60
2022-09-09T19:59:40.348Z,16.50
2022-09-09T20:02:07.084Z,16.40
2022-09-09T20:04:35.114Z,16.30
2022-09-09T20:07:02.179Z,16.50
2022-09-09T20:09:30.323Z,16.60
2022-09-09T20:11:57.003Z,16.60
2022-09-09T20:14:24.029Z,16.70
2022-09-09T20:16:50.672Z,16.90
2022-09-09T20:19:17.417Z,16.80
2022-09-09T20:21:48.255Z,16.90
2022-09-09T20:24:20.079Z,16.90
2022-09-09T20:26:47.929Z,16.90
2022-09-09T20:29:16.692Z,16.90
2022-09-09T20:31:44.232Z,16.90
2022-09-09T20:34:14.008Z,16.90
2022-09-09T20:36:41.686Z,16.80
2022-09-09T20:39:17.270Z,16.80
2022-09-09T20:41:45.870Z,16.70
2022-09-09T20:44:24.232Z,16.70
2022-09-09T20:46:55.321Z,16.50
2022-09-09T20:49:24.129Z,16.60
2022-09-09T20:51:51.663Z,16.60
2022-09-09T20:54:20.862Z,16.60
2022-09-09T20:56:50.218Z,16.60
2022-09-09T20:59:24.539Z,16.50
2022-09-09T21:01:51.772Z,16.30
2022-09-09T21:04:20.293Z,16.30
2022-09-09T21:06:49.068Z,16.20
2022-09-09T21:09:15.861Z,16.10
2022-09-09T21:11:42.447Z,16.10
2022-09-09T21:14:09.687Z,16.20
2022-09-09T21:16:36.306Z,16.00
2022-09-09T21:19:03.001Z,16.00
2022-09-09T21:21:29.681Z,16.00
2022-09-09T21:23:58.179Z,16.00
2022-09-09T21:26:25.274Z,15.90
2022-09-09T21:28:52.048Z,16.00
2022-09-09T21:31:19.868Z,15.90
2022-09-09T21:33:46.595Z,15.80
2022-09-09T21:36:14.539Z,15.70
2022-09-09T21:38:41.849Z,15.60
2022-09-09T21:41:14.205Z,15.50
2022-09-09T21:43:42.232Z,15.60
2022-09-09T21:46:11.499Z,15.90
2022-09-09T21:48:38.312Z,16.10
2022-09-09T21:51:09.636Z,16.10
2022-09-09T21:53:36.924Z,16.10
2022-09-09T21:56:06.900Z,16.10
2022-09-09T21:58:35.031Z,16.00
2022-09-09T22:01:02.523Z,15.90
2022-09-09T22:03:29.110Z,16.00
2022-09-09T22:05:55.742Z,16.00
2022-09-09T22:08:22.416Z,16.00
2022-09-09T22:10:49.033Z,15.90
2022-09-09T22:13:16.925Z,15.80
2022-09-09T22:15:45.441Z,15.80
2022-09-09T22:18:14.021Z,15.90
2022-09-09T22:20:43.342Z,16.00
2022-09-09T22:23:10.361Z,15.80
2022-09-09T22:25:38.006Z,15.80
2022-09-09T22:28:06.171Z,15.90
2022-09-09T22:30:33.617Z,16.00
2022-09-09T22:33:01.205Z,15.90
2022-09-09T22:35:27.945Z,16.00
2022-09-09T22:37:55.777Z,15.90
2022-09-09T22:40:22.763Z,15.90
2022-09-09T22:42:52.707Z,16.00
2022-09-09T22:45:21.517Z,15.70
2022-09-09T22:47:48.188Z,15.80
2022-09-09T22:50:14.943Z,15.80
2022-09-09T22:52:41.567Z,15.90
2022-09-09T22:55:09.256Z,16.00
2022-09-09T22:57:36.452Z,16.00
2022-09-09T23:00:09.039Z,16.10
2022-09-09T23:02:40.790Z,16.10
2022-09-09T23:05:08.624Z,16.10
2022-09-09T23:07:36.606Z,15.90
2022-09-09T23:10:05.466Z,15.90
2022-09-09T23:12:32.554Z,15.90
2022-09-09T23:14:59.236Z,15.90
2022-09-09T23:17:26.320Z,16.00
2022-09-09T23:19:56.265Z,16.00
2022-09-09T23:22:27.025Z,16.10
2022-09-09T23:24:53.935Z,16.10
2022-09-09T23:27:24.042Z,16.10
2022-09-09T23:29:51.655Z,16.10
2022-09-09T23:32:18.390Z,16.20
2022-09-09T23:34:45.815Z,16.20
2022-09-09T23:37:12.863Z,16.20
2022-09-09T23:39:40.422Z,16.10
2022-09-09T23:42:08.028Z,16.00
2022-09-09T23:44:38.405Z,16.10
2022-09-09T23:47:06.435Z,16.00
2022-09-09T23:49:34.723Z,16.00
2022-09-09T23:52:05.218Z,15.90
2022-09-09T23:54:33.080Z,16.00
2022-09-09T23:57:00.097Z,16.00
2022-09-09T23:59:26.825Z,16.10
